sensor_id;sensor_type;location;lat;lon;timestamp;pressure;altitude;pressure_sealevel;temperature;humidity
71805;BME280;59654;52.216;5.616;2023-04-02T00:01:37;101011.16;;;4.20;99.24
71805;BME280;59654;52.216;5.616;2023-04-02T00:02:29;101010.28;;;4.22;99.05
71805;BME280;59654;52.216;5.616;2023-04-02T00:03:05;101010.28;;;4.21;99.27
71805;BME280;59654;52.216;5.616;2023-04-02T00:05:47;101017.47;;;4.07;99.16
71805;BME280;59654;52.216;5.616;2023-04-02T00:07:25;101014.84;;;4.02;98.97
71805;BME280;59654;52.216;5.616;2023-04-02T00:08:15;101020.16;;;3.99;99.27
71805;BME280;59654;52.216;5.616;2023-04-02T00:08:56;101026.34;;;3.96;99.55
71805;BME280;59654;52.216;5.616;2023-04-02T00:09:42;101033.31;;;4.00;99.21
71805;BME280;59654;52.216;5.616;2023-04-02T00:10:32;101017.56;;;3.97;98.91
71805;BME280;59654;52.216;5.616;2023-04-02T00:11:07;101025.47;;;3.96;98.95
71805;BME280;59654;52.216;5.616;2023-04-02T00:11:42;101024.59;;;3.95;99.11
71805;BME280;59654;52.216;5.616;2023-04-02T00:12:17;101020.19;;;3.96;98.96
71805;BME280;59654;52.216;5.616;2023-04-02T00:12:59;101028.97;;;3.98;99.00
71805;BME280;59654;52.216;5.616;2023-04-02T00:13:38;101026.38;;;3.93;98.93
71805;BME280;59654;52.216;5.616;2023-04-02T00:14:28;101026.38;;;3.93;98.91
71805;BME280;59654;52.216;5.616;2023-04-02T00:15:03;101027.25;;;3.94;98.77
71805;BME280;59654;52.216;5.616;2023-04-02T00:15:40;101015.84;;;3.90;99.10
71805;BME280;59654;52.216;5.616;2023-04-02T00:16:23;101029.88;;;3.92;99.42
71805;BME280;59654;52.216;5.616;2023-04-02T00:16:57;101029.91;;;3.91;98.79
71805;BME280;59654;52.216;5.616;2023-04-02T00:17:30;101034.28;;;3.92;99.25
71805;BME280;59654;52.216;5.616;2023-04-02T00:18:03;101028.13;;;3.91;99.19
71805;BME280;59654;52.216;5.616;2023-04-02T00:18:41;101042.19;;;3.93;99.11
71805;BME280;59654;52.216;5.616;2023-04-02T00:19:29;101036.94;;;3.90;99.25
71805;BME280;59654;52.216;5.616;2023-04-02T00:20:06;101036.91;;;3.93;98.90
71805;BME280;59654;52.216;5.616;2023-04-02T00:20:46;101034.28;;;3.95;98.74
71805;BME280;59654;52.216;5.616;2023-04-02T00:21:32;101033.41;;;3.94;98.51
71805;BME280;59654;52.216;5.616;2023-04-02T00:22:08;101029.88;;;3.97;98.35
71805;BME280;59654;52.216;5.616;2023-04-02T00:22:48;101038.66;;;3.97;98.63
71805;BME280;59654;52.216;5.616;2023-04-02T00:23:19;101038.63;;;3.99;98.78
71805;BME280;59654;52.216;5.616;2023-04-02T00:23:52;101050.03;;;4.01;98.83
71805;BME280;59654;52.216;5.616;2023-04-02T00:24:24;101051.78;;;4.00;98.18
71805;BME280;59654;52.216;5.616;2023-04-02T00:24:55;101036.91;;;3.98;98.57
71805;BME280;59654;52.216;5.616;2023-04-02T00:25:29;101041.25;;;3.99;98.28
71805;BME280;59654;52.216;5.616;2023-04-02T00:26:23;101048.34;;;3.97;98.24
71805;BME280;59654;52.216;5.616;2023-04-02T00:27:10;101051.88;;;3.94;98.71
71805;BME280;59654;52.216;5.616;2023-04-02T00:27:42;101044.81;;;3.98;98.14
71805;BME280;59654;52.216;5.616;2023-04-02T00:28:21;101052.72;;;3.96;98.00
71805;BME280;59654;52.216;5.616;2023-04-02T00:28:52;101048.34;;;3.95;98.20
71805;BME280;59654;52.216;5.616;2023-04-02T00:29:24;101052.72;;;3.96;98.63
71805;BME280;59654;52.216;5.616;2023-04-02T00:29:56;101050.97;;;3.97;98.21
71805;BME280;59654;52.216;5.616;2023-04-02T00:30:29;101044.81;;;3.98;98.54
71805;BME280;59654;52.216;5.616;2023-04-02T00:31:00;101058.00;;;3.96;98.47
71805;BME280;59654;52.216;5.616;2023-04-02T00:31:33;101058.00;;;3.96;98.32
71805;BME280;59654;52.216;5.616;2023-04-02T00:32:08;101054.50;;;3.94;98.20
71805;BME280;59654;52.216;5.616;2023-04-02T00:32:47;101053.63;;;3.95;98.97
71805;BME280;59654;52.216;5.616;2023-04-02T00:33:22;101063.28;;;3.96;98.59
71805;BME280;59654;52.216;5.616;2023-04-02T00:33:57;101051.88;;;3.94;98.45
71805;BME280;59654;52.216;5.616;2023-04-02T00:34:36;101057.13;;;3.96;98.29
71805;BME280;59654;52.216;5.616;2023-04-02T00:35:27;101056.19;;;3.98;99.16
71805;BME280;59654;52.216;5.616;2023-04-02T00:35:58;101056.19;;;3.98;98.58
71805;BME280;59654;52.216;5.616;2023-04-02T00:36:32;101065.00;;;3.99;98.69
71805;BME280;59654;52.216;5.616;2023-04-02T00:37:04;101058.03;;;3.93;98.35
71805;BME280;59654;52.216;5.616;2023-04-02T00:37:35;101063.31;;;3.92;98.86
71805;BME280;59654;52.216;5.616;2023-04-02T00:38:59;101071.25;;;3.86;98.65
71805;BME280;59654;52.216;5.616;2023-04-02T00:39:37;101061.59;;;3.83;98.89
71805;BME280;59654;52.216;5.616;2023-04-02T00:40:50;101069.53;;;3.82;99.15
71805;BME280;59654;52.216;5.616;2023-04-02T00:41:28;101066.88;;;3.83;98.95
71805;BME280;59654;52.216;5.616;2023-04-02T00:42:03;101066.84;;;3.86;98.79
71805;BME280;59654;52.216;5.616;2023-04-02T00:42:37;101067.75;;;3.85;98.71
71805;BME280;59654;52.216;5.616;2023-04-02T00:43:13;101072.13;;;3.86;98.77
71805;BME280;59654;52.216;5.616;2023-04-02T00:43:48;101069.50;;;3.85;98.91
71805;BME280;59654;52.216;5.616;2023-04-02T00:44:27;101071.31;;;3.81;99.04
71805;BME280;59654;52.216;5.616;2023-04-02T00:45:00;101076.53;;;3.83;98.63
71805;BME280;59654;52.216;5.616;2023-04-02T00:45:36;101080.03;;;3.85;98.91
71805;BME280;59654;52.216;5.616;2023-04-02T00:46:14;101070.38;;;3.82;99.03
71805;BME280;59654;52.216;5.616;2023-04-02T00:46:49;101077.41;;;3.85;99.25
71805;BME280;59654;52.216;5.616;2023-04-02T00:47:25;101074.78;;;3.83;99.21
71805;BME280;59654;52.216;5.616;2023-04-02T00:49:09;101086.19;;;3.85;98.79
71805;BME280;59654;52.216;5.616;2023-04-02T00:50:04;101085.31;;;3.86;98.88
71805;BME280;59654;52.216;5.616;2023-04-02T00:50:43;101083.56;;;3.85;98.69
71805;BME280;59654;52.216;5.616;2023-04-02T00:51:27;101088.81;;;3.87;99.00
71805;BME280;59654;52.216;5.616;2023-04-02T00:52:06;101083.53;;;3.90;98.76
71805;BME280;59654;52.216;5.616;2023-04-02T00:52:42;101090.56;;;3.92;98.56
71805;BME280;59654;52.216;5.616;2023-04-02T00:53:24;101085.28;;;3.92;98.63
71805;BME280;59654;52.216;5.616;2023-04-02T00:54:03;101090.56;;;3.91;98.31
71805;BME280;59654;52.216;5.616;2023-04-02T00:55:12;101087.91;;;3.94;98.56
71805;BME280;59654;52.216;5.616;2023-04-02T00:55:47;101096.72;;;3.94;98.22
71805;BME280;59654;52.216;5.616;2023-04-02T00:56:37;101093.19;;;3.95;98.43
71805;BME280;59654;52.216;5.616;2023-04-02T00:57:15;101099.34;;;3.91;97.73
71805;BME280;59654;52.216;5.616;2023-04-02T00:57:58;101098.47;;;3.92;98.02
71805;BME280;59654;52.216;5.616;2023-04-02T00:58:33;101096.72;;;3.90;98.12
71805;BME280;59654;52.216;5.616;2023-04-02T00:59:33;101114.31;;;3.91;98.05
71805;BME280;59654;52.216;5.616;2023-04-02T01:00:49;101102.97;;;3.80;97.87
71805;BME280;59654;52.216;5.616;2023-04-02T01:01:36;101110.91;;;3.75;97.96
71805;BME280;59654;52.216;5.616;2023-04-02T01:03:53;101112.66;;;3.70;98.32
71805;BME280;59654;52.216;5.616;2023-04-02T01:04:33;101114.44;;;3.70;98.55
71805;BME280;59654;52.216;5.616;2023-04-02T01:05:24;101117.91;;;3.76;98.85
71805;BME280;59654;52.216;5.616;2023-04-02T01:06:10;101123.19;;;3.79;98.57
71805;BME280;59654;52.216;5.616;2023-04-02T01:06:45;101116.16;;;3.78;98.19
71805;BME280;59654;52.216;5.616;2023-04-02T01:08:54;101131.97;;;3.75;97.77
71805;BME280;59654;52.216;5.616;2023-04-02T01:14:16;101127.69;;;3.54;97.50
71805;BME280;59654;52.216;5.616;2023-04-02T01:15:12;101133.84;;;3.52;97.43
71805;BME280;59654;52.216;5.616;2023-04-02T01:18:59;101135.59;;;3.62;97.60
71805;BME280;59654;52.216;5.616;2023-04-02T01:24:32;101141.66;;;3.73;96.78
71805;BME280;59654;52.216;5.616;2023-04-02T01:25:04;101149.59;;;3.70;96.80
71805;BME280;59654;52.216;5.616;2023-04-02T01:26:53;101148.72;;;3.68;97.09
71805;BME280;59654;52.216;5.616;2023-04-02T01:27:40;101147.84;;;3.67;96.69
71805;BME280;59654;52.216;5.616;2023-04-02T01:28:41;101146.13;;;3.62;97.24
71805;BME280;59654;52.216;5.616;2023-04-02T01:29:34;101146.13;;;3.62;97.18
71805;BME280;59654;52.216;5.616;2023-04-02T01:30:10;101149.63;;;3.64;96.88
71805;BME280;59654;52.216;5.616;2023-04-02T01:30:54;101148.75;;;3.65;97.01
71805;BME280;59654;52.216;5.616;2023-04-02T01:31:27;101158.44;;;3.63;96.89
71805;BME280;59654;52.216;5.616;2023-04-02T01:32:04;101151.41;;;3.62;97.10
71805;BME280;59654;52.216;5.616;2023-04-02T01:32:41;101153.16;;;3.60;97.10
71805;BME280;59654;52.216;5.616;2023-04-02T01:33:12;101154.91;;;3.61;96.87
71805;BME280;59654;52.216;5.616;2023-04-02T01:33:43;101151.41;;;3.62;97.03
71805;BME280;59654;52.216;5.616;2023-04-02T01:34:18;101161.94;;;3.62;96.73
71805;BME280;59654;52.216;5.616;2023-04-02T01:34:51;101157.56;;;3.62;96.71
71805;BME280;59654;52.216;5.616;2023-04-02T01:35:24;101159.31;;;3.63;96.92
71805;BME280;59654;52.216;5.616;2023-04-02T01:36:10;101159.31;;;3.65;96.23
71805;BME280;59654;52.216;5.616;2023-04-02T01:37:44;101159.31;;;3.57;96.70
71805;BME280;59654;52.216;5.616;2023-04-02T01:38:45;101166.34;;;3.58;96.86
71805;BME280;59654;52.216;5.616;2023-04-02T01:39:41;101167.22;;;3.56;96.62
71805;BME280;59654;52.216;5.616;2023-04-02T01:40:37;101168.13;;;3.53;97.14
71805;BME280;59654;52.216;5.616;2023-04-02T01:41:36;101162.84;;;3.55;97.02
71805;BME280;59654;52.216;5.616;2023-04-02T01:43:27;101172.50;;;3.60;97.33
71805;BME280;59654;52.216;5.616;2023-04-02T01:44:08;101171.63;;;3.61;97.35
71805;BME280;59654;52.216;5.616;2023-04-02T01:44:50;101170.75;;;3.58;96.33
71805;BME280;59654;52.216;5.616;2023-04-02T01:45:23;101172.50;;;3.59;96.60
71805;BME280;59654;52.216;5.616;2023-04-02T01:45:56;101180.41;;;3.60;96.68
71805;BME280;59654;52.216;5.616;2023-04-02T01:46:33;101175.13;;;3.57;96.80
71805;BME280;59654;52.216;5.616;2023-04-02T01:47:11;101180.41;;;3.56;96.42
71805;BME280;59654;52.216;5.616;2023-04-02T01:47:44;101176.91;;;3.55;96.86
71805;BME280;59654;52.216;5.616;2023-04-02T01:48:18;101165.47;;;3.55;97.51
71805;BME280;59654;52.216;5.616;2023-04-02T01:48:55;101169.88;;;3.51;97.12
71805;BME280;59654;52.216;5.616;2023-04-02T01:49:27;101174.31;;;3.48;97.64
71805;BME280;59654;52.216;5.616;2023-04-02T01:50:49;101178.72;;;3.47;97.26
71805;BME280;59654;52.216;5.616;2023-04-02T01:51:29;101178.72;;;3.47;97.33
71805;BME280;59654;52.216;5.616;2023-04-02T01:52:05;101181.34;;;3.49;97.45
71805;BME280;59654;52.216;5.616;2023-04-02T01:52:44;101183.06;;;3.51;98.01
71805;BME280;59654;52.216;5.616;2023-04-02T01:53:20;101183.03;;;3.57;97.53
71805;BME280;59654;52.216;5.616;2023-04-02T01:53:54;101178.66;;;3.61;97.63
71805;BME280;59654;52.216;5.616;2023-04-02T01:54:26;101183.91;;;3.64;97.45
71805;BME280;59654;52.216;5.616;2023-04-02T01:54:58;101186.50;;;3.68;97.13
71805;BME280;59654;52.216;5.616;2023-04-02T01:56:04;101185.63;;;3.70;97.20
71805;BME280;59654;52.216;5.616;2023-04-02T01:56:37;101190.03;;;3.69;97.11
71805;BME280;59654;52.216;5.616;2023-04-02T01:57:09;101185.66;;;3.65;97.62
71805;BME280;59654;52.216;5.616;2023-04-02T01:57:44;101188.31;;;3.63;96.83
71805;BME280;59654;52.216;5.616;2023-04-02T01:58:21;101190.06;;;3.58;96.92
71805;BME280;59654;52.216;5.616;2023-04-02T01:58:58;101196.22;;;3.57;97.42
71805;BME280;59654;52.216;5.616;2023-04-02T01:59:32;101190.06;;;3.60;97.45
71805;BME280;59654;52.216;5.616;2023-04-02T02:00:06;101198.84;;;3.60;97.48
71805;BME280;59654;52.216;5.616;2023-04-02T02:01:07;101190.91;;;3.68;97.21
71805;BME280;59654;52.216;5.616;2023-04-02T02:02:37;101205.84;;;3.66;97.44
71805;BME280;59654;52.216;5.616;2023-04-02T02:03:11;101203.25;;;3.64;96.86
71805;BME280;59654;52.216;5.616;2023-04-02T02:03:44;101214.69;;;3.56;96.91
71805;BME280;59654;52.216;5.616;2023-04-02T02:04:17;101206.78;;;3.53;96.98
71805;BME280;59654;52.216;5.616;2023-04-02T02:04:48;101205.91;;;3.51;96.79
71805;BME280;59654;52.216;5.616;2023-04-02T02:05:22;101209.47;;;3.44;96.99
71805;BME280;59654;52.216;5.616;2023-04-02T02:05:54;101202.44;;;3.40;97.05
71805;BME280;59654;52.216;5.616;2023-04-02T02:06:27;101208.59;;;3.40;97.51
71805;BME280;59654;52.216;5.616;2023-04-02T02:06:59;101214.75;;;3.36;97.21
71805;BME280;59654;52.216;5.616;2023-04-02T02:07:32;101211.22;;;3.37;97.77
71805;BME280;59654;52.216;5.616;2023-04-02T02:08:09;101212.97;;;3.37;97.21
71805;BME280;59654;52.216;5.616;2023-04-02T02:08:53;101219.16;;;3.32;97.09
71805;BME280;59654;52.216;5.616;2023-04-02T02:09:31;101223.53;;;3.35;97.62
71805;BME280;59654;52.216;5.616;2023-04-02T02:10:04;101222.66;;;3.39;96.84
71805;BME280;59654;52.216;5.616;2023-04-02T02:10:38;101223.53;;;3.38;97.32
71805;BME280;59654;52.216;5.616;2023-04-02T02:11:15;101232.31;;;3.34;97.22
71805;BME280;59654;52.216;5.616;2023-04-02T02:11:49;101227.97;;;3.27;97.19
71805;BME280;59654;52.216;5.616;2023-04-02T02:12:21;101227.06;;;3.25;97.02
71805;BME280;59654;52.216;5.616;2023-04-02T02:12:52;101220.06;;;3.24;97.30
71805;BME280;59654;52.216;5.616;2023-04-02T02:13:23;101229.72;;;3.22;97.13
71805;BME280;59654;52.216;5.616;2023-04-02T02:13:58;101224.44;;;3.22;97.63
71805;BME280;59654;52.216;5.616;2023-04-02T02:14:30;101231.47;;;3.21;97.73
71805;BME280;59654;52.216;5.616;2023-04-02T02:15:01;101233.22;;;3.22;97.44
71805;BME280;59654;52.216;5.616;2023-04-02T02:15:34;101229.72;;;3.23;98.05
71805;BME280;59654;52.216;5.616;2023-04-02T02:16:09;101228.84;;;3.24;97.53
71805;BME280;59654;52.216;5.616;2023-04-02T02:16:46;101235.84;;;3.25;98.03
71805;BME280;59654;52.216;5.616;2023-04-02T02:17:26;101238.50;;;3.24;98.11
71805;BME280;59654;52.216;5.616;2023-04-02T02:18:05;101238.50;;;3.24;97.72
71805;BME280;59654;52.216;5.616;2023-04-02T02:18:36;101237.63;;;3.23;98.08
71805;BME280;59654;52.216;5.616;2023-04-02T02:19:54;101241.13;;;3.27;98.08
71805;BME280;59654;52.216;5.616;2023-04-02T02:20:27;101241.13;;;3.27;98.15
71805;BME280;59654;52.216;5.616;2023-04-02T02:21:01;101243.75;;;3.28;98.25
71805;BME280;59654;52.216;5.616;2023-04-02T02:21:41;101241.13;;;3.27;98.12
71805;BME280;59654;52.216;5.616;2023-04-02T02:22:30;101242.88;;;3.25;97.39
71805;BME280;59654;52.216;5.616;2023-04-02T02:23:10;101247.28;;;3.21;97.59
71805;BME280;59654;52.216;5.616;2023-04-02T02:23:42;101253.41;;;3.20;97.51
71805;BME280;59654;52.216;5.616;2023-04-02T02:24:23;101256.97;;;3.16;97.47
71805;BME280;59654;52.216;5.616;2023-04-02T02:24:59;101256.97;;;3.13;97.80
71805;BME280;59654;52.216;5.616;2023-04-02T02:25:33;101254.34;;;3.15;97.74
71805;BME280;59654;52.216;5.616;2023-04-02T02:26:06;101254.31;;;3.18;97.82
71805;BME280;59654;52.216;5.616;2023-04-02T02:26:39;101255.19;;;3.21;97.78
71805;BME280;59654;52.216;5.616;2023-04-02T02:28:20;101251.66;;;3.25;97.37
71805;BME280;59654;52.216;5.616;2023-04-02T02:28:56;101256.94;;;3.25;96.55
71805;BME280;59654;52.216;5.616;2023-04-02T02:29:31;101261.34;;;3.28;96.92
71805;BME280;59654;52.216;5.616;2023-04-02T02:30:18;101264.84;;;3.21;96.97
71805;BME280;59654;52.216;5.616;2023-04-02T02:31:01;101264.84;;;3.18;97.34
71805;BME280;59654;52.216;5.616;2023-04-02T02:31:37;101263.97;;;3.17;97.43
71805;BME280;59654;52.216;5.616;2023-04-02T02:32:14;101271.00;;;3.20;97.12
71805;BME280;59654;52.216;5.616;2023-04-02T02:33:57;101273.66;;;3.09;96.94
71805;BME280;59654;52.216;5.616;2023-04-02T02:34:38;101269.25;;;3.08;96.81
71805;BME280;59654;52.216;5.616;2023-04-02T02:35:28;101273.66;;;3.08;96.95
71805;BME280;59654;52.216;5.616;2023-04-02T02:37:23;101274.50;;;3.05;97.28
71805;BME280;59654;52.216;5.616;2023-04-02T02:38:55;101278.91;;;3.06;97.09
71805;BME280;59654;52.216;5.616;2023-04-02T02:39:43;101282.44;;;2.96;96.66
71805;BME280;59654;52.216;5.616;2023-04-02T02:40:29;101277.16;;;2.94;96.91
71805;BME280;59654;52.216;5.616;2023-04-02T02:42:27;101286.81;;;2.89;97.57
71805;BME280;59654;52.216;5.616;2023-04-02T02:43:11;101290.28;;;2.87;97.18
71805;BME280;59654;52.216;5.616;2023-04-02T02:43:52;101292.03;;;2.85;97.39
71805;BME280;59654;52.216;5.616;2023-04-02T02:44:32;101279.78;;;2.81;97.66
71805;BME280;59654;52.216;5.616;2023-04-02T02:45:12;101277.13;;;2.79;97.19
71805;BME280;59654;52.216;5.616;2023-04-02T02:45:47;101281.53;;;2.79;97.19
71805;BME280;59654;52.216;5.616;2023-04-02T02:46:22;101291.16;;;2.77;97.41
71805;BME280;59654;52.216;5.616;2023-04-02T02:47:04;101283.25;;;2.71;97.45
71805;BME280;59654;52.216;5.616;2023-04-02T02:47:43;101291.16;;;2.74;97.72
71805;BME280;59654;52.216;5.616;2023-04-02T02:48:19;101291.16;;;2.75;97.32
71805;BME280;59654;52.216;5.616;2023-04-02T02:48:56;101286.78;;;2.77;97.48
71805;BME280;59654;52.216;5.616;2023-04-02T02:49:32;101297.31;;;2.79;97.54
71805;BME280;59654;52.216;5.616;2023-04-02T02:50:23;101292.94;;;2.81;96.88
71805;BME280;59654;52.216;5.616;2023-04-02T02:50:59;101299.97;;;2.82;97.46
71805;BME280;59654;52.216;5.616;2023-04-02T02:53:03;101297.31;;;2.82;97.19
71805;BME280;59654;52.216;5.616;2023-04-02T02:53:48;101297.31;;;2.82;97.24
71805;BME280;59654;52.216;5.616;2023-04-02T02:54:21;101303.44;;;2.87;97.84
71805;BME280;59654;52.216;5.616;2023-04-02T02:54:58;101306.06;;;2.85;97.37
71805;BME280;59654;52.216;5.616;2023-04-02T02:55:36;101307.84;;;2.83;96.98
71805;BME280;59654;52.216;5.616;2023-04-02T02:56:21;101304.34;;;2.80;96.47
71805;BME280;59654;52.216;5.616;2023-04-02T02:57:00;101303.47;;;2.78;96.85
71805;BME280;59654;52.216;5.616;2023-04-02T02:57:47;101306.09;;;2.78;97.16
71805;BME280;59654;52.216;5.616;2023-04-02T02:58:31;101306.09;;;2.76;96.88
71805;BME280;59654;52.216;5.616;2023-04-02T02:59:20;101310.47;;;2.77;96.96
71805;BME280;59654;52.216;5.616;2023-04-02T02:59:56;101316.59;;;2.72;97.05
71805;BME280;59654;52.216;5.616;2023-04-02T03:00:28;101321.88;;;2.70;97.13
71805;BME280;59654;52.216;5.616;2023-04-02T03:01:04;101316.59;;;2.69;96.73
71805;BME280;59654;52.216;5.616;2023-04-02T03:01:37;101320.13;;;2.68;96.88
71805;BME280;59654;52.216;5.616;2023-04-02T03:02:09;101313.97;;;2.66;96.83
71805;BME280;59654;52.216;5.616;2023-04-02T03:02:41;101312.22;;;2.68;97.61
71805;BME280;59654;52.216;5.616;2023-04-02T03:03:27;101315.75;;;2.67;97.46
71805;BME280;59654;52.216;5.616;2023-04-02T03:04:03;101322.72;;;2.60;96.88
71805;BME280;59654;52.216;5.616;2023-04-02T03:04:35;101313.94;;;2.58;97.00
71805;BME280;59654;52.216;5.616;2023-04-02T03:05:22;101325.38;;;2.61;96.86
71805;BME280;59654;52.216;5.616;2023-04-02T03:06:03;101322.72;;;2.58;96.86
71805;BME280;59654;52.216;5.616;2023-04-02T03:06:39;101327.13;;;2.59;97.02
71805;BME280;59654;52.216;5.616;2023-04-02T03:07:10;101320.13;;;2.63;97.60
71805;BME280;59654;52.216;5.616;2023-04-02T03:07:41;101325.38;;;2.66;97.70
71805;BME280;59654;52.216;5.616;2023-04-02T03:08:25;101323.63;;;2.67;97.45
71805;BME280;59654;52.216;5.616;2023-04-02T03:09:12;101327.13;;;2.70;97.60
71805;BME280;59654;52.216;5.616;2023-04-02T03:10:22;101329.78;;;2.73;96.36
71805;BME280;59654;52.216;5.616;2023-04-02T03:13:39;101336.78;;;2.74;96.58
71805;BME280;59654;52.216;5.616;2023-04-02T03:14:29;101337.66;;;2.72;96.28
71805;BME280;59654;52.216;5.616;2023-04-02T03:16:30;101342.91;;;2.70;96.32
71805;BME280;59654;52.216;5.616;2023-04-02T03:17:49;101335.91;;;2.69;96.29
71805;BME280;59654;52.216;5.616;2023-04-02T03:19:24;101350.84;;;2.67;96.83
71805;BME280;59654;52.216;5.616;2023-04-02T03:19:54;101340.28;;;2.62;95.94
71805;BME280;59654;52.216;5.616;2023-04-02T03:20:51;101347.28;;;2.57;96.12
71805;BME280;59654;52.216;5.616;2023-04-02T03:22:19;101347.31;;;2.63;96.54
71805;BME280;59654;52.216;5.616;2023-04-02T03:23:07;101353.44;;;2.69;96.42
71805;BME280;59654;52.216;5.616;2023-04-02T03:23:56;101350.81;;;2.64;95.74
71805;BME280;59654;52.216;5.616;2023-04-02T03:24:54;101356.09;;;2.62;95.99
71805;BME280;59654;52.216;5.616;2023-04-02T03:25:51;101355.19;;;2.57;95.73
71805;BME280;59654;52.216;5.616;2023-04-02T03:26:48;101356.94;;;2.49;95.51
71805;BME280;59654;52.216;5.616;2023-04-02T03:27:41;101367.41;;;2.42;96.33
71805;BME280;59654;52.216;5.616;2023-04-02T03:28:26;101365.63;;;2.36;95.94
71805;BME280;59654;52.216;5.616;2023-04-02T03:30:41;101368.25;;;2.36;95.66
71805;BME280;59654;52.216;5.616;2023-04-02T03:31:47;101362.16;;;2.40;96.64
71805;BME280;59654;52.216;5.616;2023-04-02T03:32:34;101363.91;;;2.44;95.85
71805;BME280;59654;52.216;5.616;2023-04-02T03:33:30;101364.78;;;2.42;96.19
71805;BME280;59654;52.216;5.616;2023-04-02T03:34:15;101370.97;;;2.48;96.04
71805;BME280;59654;52.216;5.616;2023-04-02T03:34:57;101372.72;;;2.51;96.70
71805;BME280;59654;52.216;5.616;2023-04-02T03:35:36;101374.47;;;2.50;95.42
71805;BME280;59654;52.216;5.616;2023-04-02T03:37:30;101367.47;;;2.49;95.41
71805;BME280;59654;52.216;5.616;2023-04-02T03:38:12;101377.09;;;2.53;95.51
71805;BME280;59654;52.216;5.616;2023-04-02T03:39:05;101380.63;;;2.55;95.59
71805;BME280;59654;52.216;5.616;2023-04-02T03:40:41;101388.50;;;2.49;94.92
71805;BME280;59654;52.216;5.616;2023-04-02T03:42:13;101392.91;;;2.49;95.26
71805;BME280;59654;52.216;5.616;2023-04-02T03:42:47;101391.09;;;2.42;95.18
71805;BME280;59654;52.216;5.616;2023-04-02T03:43:25;101395.47;;;2.41;95.86
71805;BME280;59654;52.216;5.616;2023-04-02T03:44:05;101399.91;;;2.47;95.30
71805;BME280;59654;52.216;5.616;2023-04-02T03:45:45;101399.00;;;2.45;94.55
71805;BME280;59654;52.216;5.616;2023-04-02T03:47:32;101403.34;;;2.38;94.64
71805;BME280;59654;52.216;5.616;2023-04-02T03:48:23;101411.25;;;2.37;94.22
71805;BME280;59654;52.216;5.616;2023-04-02T03:49:04;101411.25;;;2.37;94.80
71805;BME280;59654;52.216;5.616;2023-04-02T03:49:54;101414.75;;;2.39;94.61
71805;BME280;59654;52.216;5.616;2023-04-02T03:50:42;101410.38;;;2.36;94.56
71805;BME280;59654;52.216;5.616;2023-04-02T03:52:28;101416.47;;;2.24;94.39
71805;BME280;59654;52.216;5.616;2023-04-02T03:53:03;101410.31;;;2.25;94.33
71805;BME280;59654;52.216;5.616;2023-04-02T03:53:35;101413.81;;;2.23;94.11
71805;BME280;59654;52.216;5.616;2023-04-02T03:54:14;101421.69;;;2.21;94.35
71805;BME280;59654;52.216;5.616;2023-04-02T03:54:46;101418.19;;;2.21;94.43
71805;BME280;59654;52.216;5.616;2023-04-02T03:55:18;101425.22;;;2.22;94.59
71805;BME280;59654;52.216;5.616;2023-04-02T03:55:55;101427.84;;;2.23;94.72
71805;BME280;59654;52.216;5.616;2023-04-02T03:56:33;101419.97;;;2.25;94.95
71805;BME280;59654;52.216;5.616;2023-04-02T03:57:24;101423.50;;;2.30;94.57
71805;BME280;59654;52.216;5.616;2023-04-02T03:58:58;101434.84;;;2.23;92.99
71805;BME280;59654;52.216;5.616;2023-04-02T04:00:12;101439.22;;;2.21;93.18
71805;BME280;59654;52.216;5.616;2023-04-02T04:00:59;101433.97;;;2.18;92.54
71805;BME280;59654;52.216;5.616;2023-04-02T04:01:56;101448.00;;;2.17;93.24
71805;BME280;59654;52.216;5.616;2023-04-02T04:02:48;101442.75;;;2.17;93.36
71805;BME280;59654;52.216;5.616;2023-04-02T04:03:40;101441.00;;;2.19;93.28
71805;BME280;59654;52.216;5.616;2023-04-02T04:04:17;101435.72;;;2.16;93.64
71805;BME280;59654;52.216;5.616;2023-04-02T04:04:49;101437.47;;;2.17;93.51
71805;BME280;59654;52.216;5.616;2023-04-02T04:05:44;101447.09;;;2.15;93.70
71805;BME280;59654;52.216;5.616;2023-04-02T04:06:32;101450.59;;;2.14;92.67
71805;BME280;59654;52.216;5.616;2023-04-02T04:07:20;101452.34;;;2.12;93.71
71805;BME280;59654;52.216;5.616;2023-04-02T04:08:14;101457.63;;;2.13;92.63
71805;BME280;59654;52.216;5.616;2023-04-02T04:09:50;101452.38;;;2.15;93.42
71805;BME280;59654;52.216;5.616;2023-04-02T04:10:25;101455.88;;;2.17;93.55
71805;BME280;59654;52.216;5.616;2023-04-02T04:11:00;101449.75;;;2.21;93.13
71805;BME280;59654;52.216;5.616;2023-04-02T04:11:38;101458.50;;;2.20;92.56
71805;BME280;59654;52.216;5.616;2023-04-02T04:12:56;101455.91;;;2.18;92.36
71805;BME280;59654;52.216;5.616;2023-04-02T04:13:42;101464.69;;;2.19;91.94
71805;BME280;59654;52.216;5.616;2023-04-02T04:14:31;101471.66;;;2.15;92.80
71805;BME280;59654;52.216;5.616;2023-04-02T04:16:28;101468.91;;;1.97;91.96
71805;BME280;59654;52.216;5.616;2023-04-02T04:17:14;101470.66;;;1.97;93.04
71805;BME280;59654;52.216;5.616;2023-04-02T04:18:58;101481.16;;;1.93;93.05
71805;BME280;59654;52.216;5.616;2023-04-02T04:20:57;101489.03;;;1.95;93.15
71805;BME280;59654;52.216;5.616;2023-04-02T04:21:38;101489.94;;;1.96;92.51
71805;BME280;59654;52.216;5.616;2023-04-02T04:22:26;101493.44;;;1.96;92.41
71805;BME280;59654;52.216;5.616;2023-04-02T04:23:30;101487.25;;;1.91;92.28
71805;BME280;59654;52.216;5.616;2023-04-02T04:24:17;101500.44;;;1.94;91.88
71805;BME280;59654;52.216;5.616;2023-04-02T04:24:53;101496.88;;;1.89;92.04
71805;BME280;59654;52.216;5.616;2023-04-02T04:25:28;101493.34;;;1.84;91.93
71805;BME280;59654;52.216;5.616;2023-04-02T04:27:05;101499.47;;;1.81;91.86
71805;BME280;59654;52.216;5.616;2023-04-02T04:27:52;101502.09;;;1.81;91.30
71805;BME280;59654;52.216;5.616;2023-04-02T04:29:03;101505.63;;;1.83;92.10
71805;BME280;59654;52.216;5.616;2023-04-02T04:30:03;101501.22;;;1.82;91.92
71805;BME280;59654;52.216;5.616;2023-04-02T04:31:17;101503.78;;;1.76;91.28